createdAt,value
2019-03-08T00:01:33.148Z,6.47
2019-03-08T00:04:02.254Z,6.54
2019-03-08T00:06:31.330Z,6.53
2019-03-08T00:09:00.440Z,6.58
2019-03-08T00:11:29.513Z,6.54
2019-03-08T00:13:59.497Z,6.54
2019-03-08T00:16:28.571Z,6.51
2019-03-08T00:18:57.666Z,6.50
2019-03-08T00:21:26.752Z,6.43
2019-03-08T00:23:55.845Z,6.42
2019-03-08T00:26:24.925Z,6.47
2019-03-08T00:28:55.198Z,6.47
2019-03-08T00:31:24.276Z,6.48
2019-03-08T00:33:53.576Z,6.43
2019-03-08T00:36:22.653Z,6.34
2019-03-08T00:38:51.749Z,6.30
2019-03-08T00:41:20.821Z,6.35
2019-03-08T00:43:49.915Z,6.34
2019-03-08T00:46:18.994Z,6.34
2019-03-08T00:48:48.269Z,6.40
2019-03-08T00:51:17.343Z,6.45
2019-03-08T00:53:46.437Z,6.36
2019-03-08T00:56:15.849Z,6.39
2019-03-08T00:58:44.930Z,6.38
2019-03-08T01:01:14.031Z,6.39
2019-03-08T01:03:43.107Z,6.37
2019-03-08T01:06:12.206Z,6.33
2019-03-08T01:08:41.283Z,6.27
2019-03-08T01:11:10.377Z,6.21
2019-03-08T01:13:39.464Z,6.21
2019-03-08T01:16:08.553Z,6.25
2019-03-08T01:18:37.630Z,6.28
2019-03-08T01:21:06.725Z,6.20
2019-03-08T01:23:35.811Z,6.20
2019-03-08T01:26:05.218Z,6.17
2019-03-08T01:28:35.804Z,6.19
2019-03-08T01:31:05.275Z,6.20
2019-03-08T01:33:34.372Z,6.17
2019-03-08T01:36:03.462Z,6.14
2019-03-08T01:38:32.642Z,6.14
2019-03-08T01:41:01.737Z,6.15
2019-03-08T01:43:30.855Z,6.15
2019-03-08T01:45:59.945Z,6.14
2019-03-08T01:48:29.017Z,6.14
2019-03-08T01:50:58.115Z,6.10
2019-03-08T01:53:27.186Z,6.10
2019-03-08T01:55:56.282Z,6.00
2019-03-08T01:58:25.633Z,5.89
2019-03-08T02:00:54.725Z,5.71
2019-03-08T02:03:23.797Z,5.77
2019-03-08T02:05:52.918Z,5.82
2019-03-08T02:08:21.998Z,5.83
2019-03-08T02:10:51.101Z,5.77
2019-03-08T02:13:20.364Z,5.74
2019-03-08T02:15:49.459Z,5.68
2019-03-08T02:18:18.533Z,5.65
2019-03-08T02:20:47.650Z,5.62
2019-03-08T02:23:16.710Z,5.63
2019-03-08T02:25:45.825Z,5.69
2019-03-08T02:28:14.904Z,5.73
2019-03-08T02:30:44.038Z,5.75
2019-03-08T02:33:13.107Z,5.74
2019-03-08T02:35:42.189Z,5.62
2019-03-08T02:38:11.285Z,5.51
2019-03-08T02:40:40.364Z,5.46
2019-03-08T02:43:11.384Z,5.33
2019-03-08T02:45:40.442Z,5.38
2019-03-08T02:48:09.570Z,5.29
2019-03-08T02:50:38.823Z,5.29
2019-03-08T02:53:07.919Z,5.24
2019-03-08T02:55:36.993Z,5.23
2019-03-08T02:58:06.121Z,5.20
2019-03-08T03:00:44.238Z,5.19
2019-03-08T03:03:13.529Z,5.18
2019-03-08T03:05:42.601Z,5.17
2019-03-08T03:08:11.697Z,5.16
2019-03-08T03:10:40.771Z,5.14
2019-03-08T03:13:09.868Z,5.18
2019-03-08T03:15:38.940Z,5.31
2019-03-08T03:18:08.036Z,5.33
2019-03-08T03:20:37.390Z,5.37
2019-03-08T03:23:06.487Z,5.40
2019-03-08T03:25:35.568Z,5.44
2019-03-08T03:28:04.665Z,5.49
2019-03-08T03:30:33.739Z,5.50
2019-03-08T03:33:02.851Z,5.55
2019-03-08T03:35:32.098Z,5.57
2019-03-08T03:38:01.192Z,5.58
2019-03-08T03:40:30.266Z,5.59
2019-03-08T03:42:59.367Z,5.53
2019-03-08T03:45:28.460Z,5.49
2019-03-08T03:47:57.525Z,5.51
2019-03-08T03:50:26.613Z,5.51
2019-03-08T03:52:55.689Z,5.49
2019-03-08T03:55:24.788Z,5.51
2019-03-08T03:57:53.862Z,5.45
2019-03-08T04:00:22.966Z,5.40
2019-03-08T04:02:52.032Z,5.42
2019-03-08T04:05:21.130Z,5.40
2019-03-08T04:07:50.208Z,5.38
2019-03-08T04:10:19.505Z,5.40
2019-03-08T04:12:48.577Z,5.40
2019-03-08T04:15:17.682Z,5.44
2019-03-08T04:17:47.035Z,5.51
2019-03-08T04:20:16.136Z,5.47
2019-03-08T04:22:45.210Z,5.48
2019-03-08T04:25:14.619Z,5.45
2019-03-08T04:27:43.690Z,5.46
2019-03-08T04:30:14.444Z,5.44
2019-03-08T04:32:43.539Z,5.45
2019-03-08T04:35:12.638Z,5.39
2019-03-08T04:37:41.721Z,5.38
2019-03-08T04:40:10.965Z,5.40
2019-03-08T04:42:40.050Z,5.36
2019-03-08T04:45:10.102Z,5.29
2019-03-08T04:47:39.169Z,5.24
2019-03-08T04:50:08.925Z,5.23
2019-03-08T04:52:38.011Z,5.23
2019-03-08T04:55:08.760Z,5.22
2019-03-08T04:57:37.831Z,5.27
2019-03-08T05:00:07.400Z,5.28
2019-03-08T05:02:36.478Z,5.27
2019-03-08T05:05:05.707Z,5.23
2019-03-08T05:07:34.779Z,5.22
2019-03-08T05:10:04.395Z,5.19
2019-03-08T05:12:33.506Z,5.19
2019-03-08T05:15:02.584Z,5.22
2019-03-08T05:17:31.678Z,5.22
2019-03-08T05:20:00.751Z,5.13
2019-03-08T05:22:29.845Z,5.04
2019-03-08T05:24:58.920Z,5.03
2019-03-08T05:27:28.029Z,4.96
2019-03-08T05:29:57.158Z,4.95
2019-03-08T05:32:26.554Z,4.87
2019-03-08T05:34:55.633Z,4.89
2019-03-08T05:37:24.742Z,4.87
2019-03-08T05:39:53.817Z,4.84
2019-03-08T05:42:23.196Z,4.86
2019-03-08T05:44:52.277Z,4.88
2019-03-08T05:47:21.371Z,4.90
2019-03-08T05:49:50.451Z,4.89
2019-03-08T05:52:19.547Z,4.87
2019-03-08T05:54:48.617Z,4.81
2019-03-08T05:57:17.889Z,4.81
2019-03-08T05:59:46.961Z,4.78
2019-03-08T06:02:16.051Z,4.78
2019-03-08T06:04:45.130Z,4.67
2019-03-08T06:07:14.222Z,4.77
2019-03-08T06:09:43.305Z,4.82
2019-03-08T06:12:12.481Z,4.88
2019-03-08T06:14:41.558Z,4.96
2019-03-08T06:17:10.647Z,5.02
2019-03-08T06:19:39.724Z,5.10
2019-03-08T06:22:08.819Z,5.14
2019-03-08T06:24:37.902Z,5.16
2019-03-08T06:27:07.475Z,5.24
2019-03-08T06:29:36.545Z,5.27
2019-03-08T06:32:05.651Z,5.36
2019-03-08T06:34:34.743Z,5.43
2019-03-08T06:37:03.855Z,5.37
2019-03-08T06:39:32.925Z,5.38
2019-03-08T06:42:02.089Z,5.48
2019-03-08T06:44:31.166Z,5.49
2019-03-08T06:47:00.257Z,5.53
2019-03-08T06:49:29.330Z,5.42
2019-03-08T06:51:58.424Z,5.50
2019-03-08T06:54:27.497Z,5.58
2019-03-08T06:56:56.769Z,5.50
2019-03-08T06:59:31.014Z,5.48
2019-03-08T07:02:00.110Z,5.46
2019-03-08T07:04:29.186Z,5.48
2019-03-08T07:06:58.277Z,5.46
2019-03-08T07:09:27.358Z,5.32
2019-03-08T07:11:56.454Z,5.35
2019-03-08T07:14:25.532Z,5.27
2019-03-08T07:16:54.631Z,5.30
2019-03-08T07:19:23.711Z,5.29
2019-03-08T07:21:55.720Z,5.36
2019-03-08T07:24:42.446Z,5.33
2019-03-08T07:27:34.529Z,5.38
2019-03-08T07:30:34.445Z,5.31
2019-03-08T07:33:25.348Z,5.31
2019-03-08T07:36:16.636Z,5.35
2019-03-08T07:39:05.023Z,5.34
2019-03-08T07:41:43.066Z,5.34
2019-03-08T07:44:31.130Z,5.35
2019-03-08T07:47:14.900Z,5.29
2019-03-08T07:50:09.118Z,5.34
2019-03-08T07:53:03.114Z,5.22
2019-03-08T07:55:42.975Z,5.19
2019-03-08T07:58:24.347Z,5.22
2019-03-08T08:01:04.761Z,5.16
2019-03-08T08:04:01.370Z,5.14
2019-03-08T08:06:36.277Z,5.19
2019-03-08T08:09:36.082Z,5.02
2019-03-08T08:12:33.246Z,4.92
2019-03-08T08:15:13.310Z,4.90
2019-03-08T08:17:58.995Z,4.78
2019-03-08T08:20:41.125Z,4.81
2019-03-08T08:23:47.105Z,4.74
2019-03-08T08:26:35.152Z,4.80
2019-03-08T08:29:23.217Z,4.78
2019-03-08T08:32:03.610Z,4.76
2019-03-08T08:34:50.569Z,4.71
2019-03-08T08:37:53.826Z,4.73
2019-03-08T08:40:41.939Z,4.74
2019-03-08T08:43:22.364Z,4.71
2019-03-08T08:46:19.518Z,4.71
2019-03-08T08:48:59.734Z,4.80
2019-03-08T08:51:56.789Z,4.76
2019-03-08T08:54:41.170Z,4.70
2019-03-08T08:57:26.817Z,4.48
2019-03-08T09:00:13.573Z,4.49
2019-03-08T09:03:04.526Z,4.56
2019-03-08T09:06:01.538Z,4.67
2019-03-08T09:08:49.583Z,4.64
2019-03-08T09:11:53.113Z,4.67
2019-03-08T09:14:32.736Z,4.79
2019-03-08T09:17:20.802Z,4.83
2019-03-08T09:20:07.568Z,4.77
2019-03-08T09:22:50.794Z,4.90
2019-03-08T09:25:37.273Z,4.97
2019-03-08T09:28:23.722Z,5.14
2019-03-08T09:30:59.571Z,5.11
2019-03-08T09:33:32.563Z,5.31
2019-03-08T09:36:20.625Z,5.34
2019-03-08T09:39:07.114Z,5.35
2019-03-08T09:41:49.253Z,5.61
2019-03-08T09:44:30.306Z,5.77
2019-03-08T09:47:17.051Z,5.80
2019-03-08T09:50:02.154Z,6.10
2019-03-08T09:52:56.006Z,6.18
2019-03-08T09:55:42.001Z,6.57
2019-03-08T09:58:29.025Z,7.08
2019-03-08T10:01:17.090Z,7.00
2019-03-08T10:03:59.281Z,6.80
2019-03-08T10:06:46.100Z,6.34
2019-03-08T10:09:23.042Z,5.98
2019-03-08T10:12:05.486Z,5.73
2019-03-08T10:14:56.396Z,5.85
2019-03-08T10:17:34.160Z,6.22
2019-03-08T10:20:12.600Z,6.93
2019-03-08T10:22:59.586Z,8.04
2019-03-08T10:25:53.820Z,7.15
2019-03-08T10:28:48.144Z,7.06
2019-03-08T10:31:42.282Z,7.48
2019-03-08T10:34:30.380Z,7.16
2019-03-08T10:37:17.101Z,6.91
2019-03-08T10:39:55.616Z,7.61
2019-03-08T10:42:36.008Z,7.33
2019-03-08T10:45:27.614Z,7.77
2019-03-08T10:48:03.905Z,8.29
2019-03-08T10:50:51.638Z,8.62
2019-03-08T10:53:42.955Z,9.29
2019-03-08T10:56:21.406Z,10.27
2019-03-08T10:59:08.245Z,9.52
2019-03-08T11:01:54.942Z,10.18
2019-03-08T11:04:35.385Z,11.73
2019-03-08T11:07:31.330Z,9.91
2019-03-08T11:10:17.986Z,9.04
2019-03-08T11:13:06.044Z,9.33
2019-03-08T11:15:43.776Z,9.01
2019-03-08T11:18:40.682Z,9.11
2019-03-08T11:21:28.075Z,8.92
2019-03-08T11:24:25.187Z,8.66
2019-03-08T11:27:11.642Z,7.11
2019-03-08T11:29:59.715Z,6.69
2019-03-08T11:32:47.759Z,6.91
2019-03-08T11:35:34.463Z,6.84
2019-03-08T11:38:17.058Z,6.96
2019-03-08T11:41:02.920Z,7.24
2019-03-08T11:43:50.986Z,7.27
2019-03-08T11:46:53.932Z,7.72
2019-03-08T11:49:33.232Z,7.72
2019-03-08T11:52:11.953Z,8.60
2019-03-08T11:54:56.101Z,10.12
2019-03-08T11:57:46.582Z,9.29
2019-03-08T12:00:40.603Z,8.08
2019-03-08T12:03:35.066Z,7.44
2019-03-08T12:06:13.961Z,8.01
2019-03-08T12:09:01.351Z,7.76
2019-03-08T12:11:56.224Z,7.79
2019-03-08T12:14:47.127Z,9.57
2019-03-08T12:17:29.197Z,10.54
2019-03-08T12:20:14.806Z,9.48
2019-03-08T12:23:01.589Z,8.99
2019-03-08T12:25:52.709Z,8.53
2019-03-08T12:28:38.479Z,7.83
2019-03-08T12:31:27.021Z,7.87
2019-03-08T12:34:15.094Z,10.21
2019-03-08T12:37:06.357Z,13.80
2019-03-08T12:39:50.612Z,16.62
2019-03-08T12:42:47.191Z,14.22
2019-03-08T12:45:44.185Z,11.67
2019-03-08T12:48:32.237Z,11.53
2019-03-08T12:51:38.337Z,10.45
2019-03-08T12:54:35.629Z,9.29
2019-03-08T12:57:23.693Z,9.03
2019-03-08T13:00:17.741Z,11.21
2019-03-08T13:03:18.845Z,17.80
2019-03-08T13:05:57.550Z,16.81
2019-03-08T13:09:03.674Z,14.23
2019-03-08T13:11:33.609Z,15.27
2019-03-08T13:14:02.751Z,14.74
2019-03-08T13:16:31.861Z,15.42
2019-03-08T13:19:00.949Z,15.25
2019-03-08T13:21:30.041Z,12.83
2019-03-08T13:23:59.154Z,13.71
2019-03-08T13:26:28.423Z,11.90
2019-03-08T13:28:57.539Z,12.28
2019-03-08T13:31:26.612Z,11.86
2019-03-08T13:33:55.746Z,11.83
2019-03-08T13:36:24.832Z,11.54
2019-03-08T13:38:53.936Z,11.68
2019-03-08T13:41:23.190Z,10.97
2019-03-08T13:43:52.286Z,10.28
2019-03-08T13:46:21.369Z,9.96
2019-03-08T13:48:50.464Z,9.78
2019-03-08T13:51:19.537Z,9.56
2019-03-08T13:53:48.635Z,9.84
2019-03-08T13:56:17.713Z,11.94
2019-03-08T13:58:46.810Z,13.50
2019-03-08T14:01:15.896Z,16.08
2019-03-08T14:03:45.057Z,15.14
2019-03-08T14:06:14.138Z,15.85
2019-03-08T14:08:43.246Z,13.49
2019-03-08T14:11:12.437Z,12.47
2019-03-08T14:13:41.623Z,12.36
2019-03-08T14:16:10.705Z,13.81
2019-03-08T14:18:39.820Z,15.76
2019-03-08T14:21:08.913Z,15.57
2019-03-08T14:23:38.196Z,16.65
2019-03-08T14:26:07.281Z,17.14
2019-03-08T14:28:36.371Z,16.84
2019-03-08T14:31:14.446Z,16.31
2019-03-08T14:33:43.570Z,15.63
2019-03-08T14:36:12.835Z,13.66
2019-03-08T14:38:41.921Z,15.05
2019-03-08T14:41:31.676Z,14.87
2019-03-08T14:44:09.489Z,15.44
2019-03-08T14:46:56.449Z,15.52
2019-03-08T14:49:25.959Z,14.08
2019-03-08T14:51:55.054Z,14.74
2019-03-08T14:54:24.334Z,12.20
2019-03-08T14:56:53.413Z,13.73
2019-03-08T14:59:22.501Z,12.43
2019-03-08T15:01:51.607Z,10.83
2019-03-08T15:04:20.695Z,10.14
2019-03-08T15:06:49.812Z,11.44
2019-03-08T15:09:18.896Z,11.63
2019-03-08T15:11:48.015Z,11.15
2019-03-08T15:14:17.105Z,10.76
2019-03-08T15:16:46.281Z,10.17
2019-03-08T15:19:15.329Z,9.70
2019-03-08T15:21:48.258Z,9.48
2019-03-08T15:24:15.237Z,9.32
2019-03-08T15:26:44.351Z,9.17
2019-03-08T15:29:13.644Z,8.92
2019-03-08T15:31:42.726Z,8.70
2019-03-08T15:34:14.620Z,9.30
2019-03-08T15:36:42.884Z,11.25
2019-03-08T15:39:11.975Z,11.62
2019-03-08T15:41:41.078Z,11.27
2019-03-08T15:44:10.163Z,10.50
2019-03-08T15:46:39.439Z,9.42
2019-03-08T15:49:08.514Z,11.09
2019-03-08T15:51:37.619Z,12.50
2019-03-08T15:54:06.709Z,11.79
2019-03-08T15:56:35.887Z,10.31
2019-03-08T15:59:04.982Z,9.20
2019-03-08T16:01:34.081Z,9.37
2019-03-08T16:04:03.167Z,9.15
2019-03-08T16:06:32.264Z,8.83
2019-03-08T16:09:01.341Z,8.23
2019-03-08T16:11:30.424Z,8.02
2019-03-08T16:14:08.448Z,7.78
2019-03-08T16:16:30.519Z,7.74
2019-03-08T16:18:59.617Z,7.66
2019-03-08T16:21:28.689Z,7.44
2019-03-08T16:23:57.794Z,7.38
2019-03-08T16:26:26.875Z,7.37
2019-03-08T16:28:55.980Z,7.49
2019-03-08T16:31:44.021Z,7.60
2019-03-08T16:34:13.119Z,7.61
2019-03-08T16:36:49.475Z,7.52
2019-03-08T16:39:41.315Z,7.51
2019-03-08T16:42:30.856Z,7.39
2019-03-08T16:45:30.649Z,7.29
2019-03-08T16:48:27.285Z,7.26
2019-03-08T16:51:23.827Z,7.33
2019-03-08T16:54:09.992Z,7.21
2019-03-08T16:56:56.769Z,7.07
2019-03-08T16:59:42.062Z,6.79
2019-03-08T17:02:23.531Z,6.69
2019-03-08T17:05:01.492Z,6.54
2019-03-08T17:07:52.294Z,6.41
2019-03-08T17:10:44.355Z,6.46
2019-03-08T17:13:21.758Z,6.19
2019-03-08T17:16:09.826Z,6.28
2019-03-08T17:18:54.386Z,6.28
2019-03-08T17:21:45.757Z,6.28
2019-03-08T17:24:27.598Z,6.26
2019-03-08T17:27:10.146Z,6.29
2019-03-08T17:29:50.622Z,6.34
2019-03-08T17:32:44.765Z,6.33
2019-03-08T17:35:42.321Z,6.25
2019-03-08T17:38:19.445Z,6.14
2019-03-08T17:40:56.262Z,6.19
2019-03-08T17:43:41.340Z,6.11
2019-03-08T17:46:47.619Z,6.14
2019-03-08T17:49:38.759Z,6.09
2019-03-08T17:52:21.459Z,5.97
2019-03-08T17:55:09.518Z,5.94
2019-03-08T17:57:56.750Z,5.96
2019-03-08T18:00:48.166Z,6.00
2019-03-08T18:03:32.508Z,5.91
2019-03-08T18:06:29.476Z,5.88
2019-03-08T18:09:17.976Z,5.85
2019-03-08T18:12:09.466Z,5.86
2019-03-08T18:14:57.971Z,5.89
2019-03-08T18:17:55.819Z,5.80
2019-03-08T18:20:41.270Z,5.87
2019-03-08T18:23:32.441Z,5.82
2019-03-08T18:26:21.314Z,5.85
2019-03-08T18:29:21.833Z,5.83
2019-03-08T18:31:58.294Z,5.78
2019-03-08T18:34:36.427Z,5.83
2019-03-08T18:37:31.113Z,5.81
2019-03-08T18:40:16.231Z,5.87
2019-03-08T18:43:10.811Z,5.92
2019-03-08T18:46:02.192Z,5.90
2019-03-08T18:48:50.643Z,5.90
2019-03-08T18:51:39.447Z,5.80
2019-03-08T18:54:33.288Z,5.75
2019-03-08T18:57:19.260Z,5.73
2019-03-08T18:59:56.973Z,5.70
2019-03-08T19:02:32.777Z,5.76
2019-03-08T19:05:16.506Z,5.79
2019-03-08T19:08:22.815Z,5.76
2019-03-08T19:11:16.260Z,5.75
2019-03-08T19:14:10.130Z,5.86
2019-03-08T19:17:01.372Z,5.76
2019-03-08T19:20:05.090Z,5.71
2019-03-08T19:22:39.502Z,5.80
2019-03-08T19:25:39.956Z,5.81
2019-03-08T19:28:20.779Z,5.81
2019-03-08T19:31:00.297Z,5.78
2019-03-08T19:33:39.665Z,5.83
2019-03-08T19:36:34.012Z,5.85
2019-03-08T19:39:24.906Z,5.90
2019-03-08T19:42:00.265Z,5.97
2019-03-08T19:44:47.131Z,6.08
2019-03-08T19:47:33.846Z,6.03
2019-03-08T19:50:21.743Z,6.11
2019-03-08T19:53:16.198Z,6.14
2019-03-08T19:56:04.589Z,6.06
2019-03-08T19:58:44.744Z,6.10
2019-03-08T20:01:51.664Z,6.09
2019-03-08T20:04:39.002Z,6.15
2019-03-08T20:07:26.179Z,6.22
2019-03-08T20:10:30.147Z,6.23
2019-03-08T20:13:20.563Z,6.28
2019-03-08T20:15:58.941Z,6.28
2019-03-08T20:19:05.268Z,6.34
2019-03-08T20:21:53.968Z,6.33
2019-03-08T20:24:51.500Z,6.38
2019-03-08T20:27:37.972Z,6.40
2019-03-08T20:30:39.701Z,6.36
2019-03-08T20:33:45.678Z,6.50
2019-03-08T20:36:48.865Z,6.48
2019-03-08T20:39:40.662Z,6.59
2019-03-08T20:42:15.561Z,6.62
2019-03-08T20:44:50.114Z,6.64
2019-03-08T20:47:22.826Z,6.54
2019-03-08T20:49:52.022Z,6.49
2019-03-08T20:52:21.368Z,6.43
2019-03-08T20:54:50.661Z,6.46
2019-03-08T20:57:21.293Z,6.43
2019-03-08T20:59:50.737Z,6.40
2019-03-08T21:02:20.167Z,6.30
2019-03-08T21:04:49.939Z,6.31
2019-03-08T21:07:19.482Z,6.30
2019-03-08T21:09:49.002Z,6.29
2019-03-08T21:12:18.446Z,6.34
2019-03-08T21:14:47.711Z,6.28
2019-03-08T21:17:17.258Z,6.30
2019-03-08T21:19:46.342Z,6.31
2019-03-08T21:22:15.454Z,6.32
2019-03-08T21:24:44.526Z,6.36
2019-03-08T21:27:13.607Z,6.36
2019-03-08T21:29:42.729Z,6.31
2019-03-08T21:32:11.831Z,6.32
2019-03-08T21:34:40.949Z,6.32
2019-03-08T21:37:10.030Z,6.23
2019-03-08T21:39:39.140Z,6.22
2019-03-08T21:42:08.232Z,6.25
2019-03-08T21:44:37.328Z,6.27
2019-03-08T21:47:06.407Z,6.20
2019-03-08T21:49:35.501Z,6.22
2019-03-08T21:52:04.586Z,6.18
2019-03-08T21:54:33.690Z,6.17
2019-03-08T21:57:02.949Z,6.19
2019-03-08T21:59:32.056Z,6.15
2019-03-08T22:02:01.129Z,6.11
2019-03-08T22:04:51.137Z,6.04
2019-03-08T22:07:21.523Z,6.07
2019-03-08T22:09:56.127Z,6.11
2019-03-08T22:12:25.174Z,6.07
2019-03-08T22:14:54.268Z,6.06
2019-03-08T22:17:23.348Z,6.06
2019-03-08T22:19:52.445Z,6.07
2019-03-08T22:22:21.516Z,6.07
2019-03-08T22:24:50.619Z,6.14
2019-03-08T22:27:19.710Z,6.19
2019-03-08T22:29:48.805Z,6.15
2019-03-08T22:32:18.146Z,6.09
2019-03-08T22:34:47.258Z,6.07
2019-03-08T22:37:16.334Z,6.13
2019-03-08T22:39:45.437Z,6.08
2019-03-08T22:42:14.514Z,6.09
2019-03-08T22:44:43.686Z,6.05
2019-03-08T22:47:12.757Z,6.04
2019-03-08T22:49:41.852Z,6.09
2019-03-08T22:52:10.920Z,6.13
2019-03-08T22:54:40.023Z,6.11
2019-03-08T22:57:09.282Z,6.13
2019-03-08T22:59:38.385Z,6.13
2019-03-08T23:02:09.353Z,6.15
2019-03-08T23:04:38.474Z,6.12
2019-03-08T23:07:07.542Z,6.17
2019-03-08T23:09:36.897Z,6.19
2019-03-08T23:12:06.025Z,6.18
2019-03-08T23:14:35.096Z,6.22
2019-03-08T23:17:04.196Z,6.16
2019-03-08T23:19:33.261Z,6.14
2019-03-08T23:22:02.357Z,6.19
2019-03-08T23:24:31.437Z,6.23
2019-03-08T23:27:18.273Z,6.25
2019-03-08T23:29:50.961Z,6.19
2019-03-08T23:32:29.122Z,6.16
2019-03-08T23:34:58.223Z,6.09
2019-03-08T23:37:27.319Z,6.16
2019-03-08T23:39:56.403Z,6.23
2019-03-08T23:42:25.496Z,6.32
2019-03-08T23:44:54.570Z,6.36
2019-03-08T23:47:23.668Z,6.38
2019-03-08T23:49:52.749Z,6.35
2019-03-08T23:52:21.844Z,6.35
2019-03-08T23:54:50.921Z,6.35
2019-03-08T23:57:20.212Z,6.36
2019-03-08T23:59:49.294Z,6.31
